Time;durP1;ratioP1;P1;durP2;ratioP2;P2;SDS_P1;SDS_P2;PMS_P1;PMS_P2;Temp;Humidity;BMP_temperature;BMP_pressure;BME280_temperature;BME280_humidity;BME280_pressure;Samples;Min_cycle;Max_cycle;Signal;HPM_P1;HPM_P2
2022/04/02 00:01:29;;;;;;;4.90;3.80;;;2.20;99.90;;;;;;5022466;28;20232;-63
2022/04/02 00:03:58;;;;;;;5.63;4.13;;;2.20;99.90;;;;;;5033527;28;20252;-62
2022/04/02 00:06:26;;;;;;;8.37;3.70;;;2.20;99.90;;;;;;5019650;28;20206;-62
2022/04/02 00:08:55;;;;;;;5.07;3.90;;;2.20;99.90;;;;;;5018940;28;20201;-63
2022/04/02 00:11:24;;;;;;;3.80;3.50;;;2.10;99.90;;;;;;5023379;28;20217;-62
2022/04/02 00:13:52;;;;;;;4.60;3.93;;;2.10;99.90;;;;;;5020971;28;20232;-63
2022/04/02 00:16:21;;;;;;;5.93;3.90;;;2.00;99.90;;;;;;5023804;28;20212;-62
2022/04/02 00:18:51;;;;;;;4.00;3.70;;;1.90;99.90;;;;;;5019923;28;20190;-63
2022/04/02 00:21:20;;;;;;;8.27;4.17;;;1.90;99.90;;;;;;5013026;28;20280;-63
2022/04/02 00:23:49;;;;;;;4.60;3.87;;;1.90;99.90;;;;;;5021578;28;20268;-62
2022/04/02 00:26:19;;;;;;;6.40;3.57;;;1.90;99.90;;;;;;5029967;28;20224;-62
2022/04/02 00:28:49;;;;;;;4.10;3.70;;;1.90;99.90;;;;;;5043168;28;21547;-63
2022/04/02 00:31:19;;;;;;;3.83;3.50;;;1.90;99.90;;;;;;5044958;28;20220;-63
2022/04/02 00:33:49;;;;;;;4.80;3.63;;;1.80;99.90;;;;;;5045080;28;20291;-63
2022/04/02 00:36:21;;;;;;;5.63;3.80;;;1.80;99.90;;;;;;5042276;28;20232;-62
2022/04/02 00:38:50;;;;;;;5.97;3.77;;;1.80;99.90;;;;;;5025083;28;20197;-61
2022/04/02 00:41:19;;;;;;;5.70;3.63;;;1.80;99.90;;;;;;5035793;28;20213;-63
2022/04/02 00:44:10;;;;;;;5.10;3.47;;;1.80;99.90;;;;;;5040128;28;20224;-61
2022/04/02 00:46:40;;;;;;;4.97;3.80;;;1.70;99.90;;;;;;5028579;28;20213;-63
2022/04/02 00:49:09;;;;;;;4.07;3.87;;;1.70;99.90;;;;;;5046526;28;20220;-63
2022/04/02 00:51:42;;;;;;;5.47;3.90;;;1.70;99.90;;;;;;5047028;28;20220;-63
2022/04/02 00:54:13;;;;;;;7.57;3.80;;;1.60;99.90;;;;;;5048815;28;20204;-62
2022/04/02 00:56:42;;;;;;;3.70;3.50;;;1.60;99.90;;;;;;5047421;28;20196;-63
2022/04/02 00:59:12;;;;;;;10.37;3.97;;;1.60;99.90;;;;;;5022630;28;20343;-63
2022/04/02 01:01:41;;;;;;;10.93;4.07;;;1.50;99.90;;;;;;5043466;28;20193;-63
2022/04/02 01:04:10;;;;;;;7.73;4.20;;;1.50;99.90;;;;;;5045635;28;20222;-62
2022/04/02 01:06:41;;;;;;;5.97;3.30;;;1.50;99.90;;;;;;5043600;28;20204;-63
2022/04/02 01:09:10;;;;;;;6.30;3.77;;;1.40;99.90;;;;;;5039864;28;20201;-63
2022/04/02 01:11:41;;;;;;;6.97;3.50;;;1.40;99.90;;;;;;5044001;28;20307;-63
2022/04/02 01:14:10;;;;;;;3.83;3.53;;;1.40;99.90;;;;;;5042552;28;20224;-63
2022/04/02 01:16:39;;;;;;;5.93;3.90;;;1.40;99.90;;;;;;5038900;28;20216;-62
2022/04/02 01:19:08;;;;;;;3.77;3.47;;;1.30;99.90;;;;;;5045660;28;20212;-63
2022/04/02 01:21:37;;;;;;;9.30;3.97;;;1.30;99.90;;;;;;5043481;28;20189;-62
2022/04/02 01:24:07;;;;;;;6.07;4.00;;;1.30;99.90;;;;;;5040400;28;20196;-63
2022/04/02 01:26:36;;;;;;;6.13;3.97;;;1.30;99.90;;;;;;5046046;28;20252;-63
2022/04/02 01:29:04;;;;;;;6.27;4.73;;;1.30;99.90;;;;;;5030858;28;20197;-63
2022/04/02 01:31:34;;;;;;;4.43;3.87;;;1.30;99.90;;;;;;5042451;28;20209;-63
2022/04/02 01:34:02;;;;;;;5.37;3.70;;;1.30;99.90;;;;;;5034231;28;20221;-62
2022/04/02 01:36:31;;;;;;;7.47;4.00;;;1.20;99.90;;;;;;5035480;28;20214;-62
2022/04/02 01:38:59;;;;;;;5.33;4.10;;;1.20;99.90;;;;;;5031872;28;20209;-63
2022/04/02 01:41:29;;;;;;;10.90;4.33;;;1.20;99.90;;;;;;5038955;28;20201;-63
2022/04/02 01:43:57;;;;;;;9.10;4.10;;;1.20;99.90;;;;;;5035084;28;20200;-63
2022/04/02 01:46:26;;;;;;;4.50;3.90;;;1.20;99.90;;;;;;5032987;28;20280;-63
2022/04/02 01:48:54;;;;;;;4.23;3.80;;;1.20;99.90;;;;;;5033261;28;20242;-63
2022/04/02 01:51:22;;;;;;;12.33;4.00;;;1.20;99.90;;;;;;5036279;28;20210;-63
2022/04/02 01:53:51;;;;;;;5.53;4.10;;;1.20;99.90;;;;;;5037919;28;20194;-62
2022/04/02 01:56:19;;;;;;;6.40;3.87;;;1.20;99.90;;;;;;5036975;28;20259;-63
2022/04/02 01:58:49;;;;;;;8.57;4.20;;;1.20;99.90;;;;;;5031724;28;20197;-62
2022/04/02 02:01:18;;;;;;;7.23;4.20;;;1.10;99.90;;;;;;5032721;28;20204;-63
2022/04/02 02:03:46;;;;;;;8.93;4.20;;;1.10;99.90;;;;;;5043505;28;20201;-63
2022/04/02 02:06:15;;;;;;;5.70;4.27;;;1.20;99.90;;;;;;5031148;28;20185;-63
2022/04/02 02:08:44;;;;;;;5.37;3.77;;;1.10;99.90;;;;;;5037125;28;20193;-62
2022/04/02 02:11:12;;;;;;;7.13;4.10;;;1.20;99.90;;;;;;5033820;28;20225;-63
2022/04/02 02:13:41;;;;;;;4.97;3.60;;;1.10;99.90;;;;;;5038377;28;20198;-63
2022/04/02 02:16:11;;;;;;;6.77;4.10;;;1.20;99.90;;;;;;5015517;28;20199;-63
2022/04/02 02:18:39;;;;;;;6.77;4.30;;;1.20;99.90;;;;;;5031110;28;20205;-62
2022/04/02 02:21:08;;;;;;;8.33;4.20;;;1.10;99.90;;;;;;5033048;28;20224;-63
2022/04/02 02:23:37;;;;;;;9.33;4.27;;;1.10;99.90;;;;;;5033247;28;20201;-63
2022/04/02 02:26:06;;;;;;;4.70;4.30;;;1.10;99.90;;;;;;5017033;28;20224;-63
2022/04/02 02:28:34;;;;;;;5.73;3.83;;;1.00;99.90;;;;;;5029954;28;20198;-63
2022/04/02 02:31:03;;;;;;;7.73;3.90;;;1.10;99.90;;;;;;5016042;28;20259;-63
2022/04/02 02:36:18;;;;;;;4.20;3.80;;;1.10;99.90;;;;;;5035618;28;20253;-63
2022/04/02 02:38:47;;;;;;;8.37;4.03;;;1.10;99.90;;;;;;5032174;28;20208;-62
2022/04/02 02:41:16;;;;;;;10.90;4.10;;;1.10;99.90;;;;;;5036088;28;20217;-63
2022/04/02 02:43:45;;;;;;;5.87;4.03;;;1.10;99.90;;;;;;5037714;28;20197;-63
2022/04/02 02:46:17;;;;;;;3.70;3.40;;;1.10;99.90;;;;;;5036682;28;20212;-63
2022/04/02 02:48:48;;;;;;;5.00;3.87;;;1.00;99.90;;;;;;5033448;28;20752;-62
2022/04/02 02:51:16;;;;;;;5.57;3.93;;;1.00;99.90;;;;;;5035358;28;20217;-62
2022/04/02 02:53:45;;;;;;;10.47;4.80;;;1.00;99.90;;;;;;5014415;28;20193;-63
2022/04/02 02:56:13;;;;;;;7.50;3.80;;;1.00;99.90;;;;;;5036669;28;20185;-63
2022/04/02 02:58:42;;;;;;;3.73;3.53;;;1.00;99.90;;;;;;5031474;28;20205;-62
2022/04/02 03:01:11;;;;;;;6.13;3.73;;;1.00;99.90;;;;;;5035402;28;20197;-63
2022/04/02 03:03:40;;;;;;;7.57;4.17;;;0.90;99.90;;;;;;5014497;28;20540;-62
2022/04/02 03:06:09;;;;;;;8.10;3.93;;;0.90;99.90;;;;;;5019584;28;20207;-63
2022/04/02 03:08:37;;;;;;;9.53;3.87;;;0.90;99.90;;;;;;5038210;28;20222;-61
2022/04/02 03:11:07;;;;;;;7.43;4.13;;;0.90;99.90;;;;;;5037532;28;20280;-62
2022/04/02 03:13:39;;;;;;;4.87;4.47;;;0.90;99.90;;;;;;5032809;28;20811;-62
2022/04/02 03:16:08;;;;;;;7.67;4.10;;;0.90;99.90;;;;;;5031528;28;20779;-63
2022/04/02 03:18:36;;;;;;;7.37;4.50;;;0.80;99.90;;;;;;5037032;28;20571;-63
2022/04/02 03:21:05;;;;;;;7.63;4.17;;;0.80;99.90;;;;;;5031126;28;20271;-63
2022/04/02 03:23:35;;;;;;;5.37;4.23;;;0.80;99.90;;;;;;5036720;28;20209;-63
2022/04/02 03:26:04;;;;;;;9.63;4.50;;;0.80;99.90;;;;;;5034576;28;20568;-63
2022/04/02 03:28:32;;;;;;;8.30;4.27;;;0.80;99.90;;;;;;5033737;28;20197;-62
2022/04/02 03:31:01;;;;;;;8.33;4.50;;;0.70;99.90;;;;;;5032752;28;20204;-63
2022/04/02 03:33:29;;;;;;;6.77;4.30;;;0.70;99.90;;;;;;5032040;28;20209;-63
2022/04/02 03:35:58;;;;;;;7.23;5.30;;;0.60;99.90;;;;;;5033563;28;20554;-63
2022/04/02 03:38:27;;;;;;;6.90;4.30;;;0.60;99.90;;;;;;5000698;28;20540;-63
2022/04/02 03:40:57;;;;;;;7.07;4.67;;;0.60;99.90;;;;;;5034712;28;20565;-63
2022/04/02 03:43:25;;;;;;;5.77;4.33;;;0.60;99.90;;;;;;5034217;28;20294;-63
2022/04/02 03:47:07;;;;;;;8.33;4.30;;;0.60;99.90;;;;;;5034952;28;20271;-63
2022/04/02 03:48:42;;;;;;;6.63;4.60;;;0.60;99.90;;;;;;5030039;28;20201;-63
2022/04/02 03:51:11;;;;;;;5.17;4.27;;;0.70;99.90;;;;;;5037856;28;20251;-63
2022/04/02 03:53:43;;;;;;;8.33;4.77;;;0.70;99.90;;;;;;5032985;28;20225;-63
2022/04/02 03:56:13;;;;;;;7.47;4.90;;;0.70;99.90;;;;;;5033427;28;20557;-62
2022/04/02 03:58:41;;;;;;;7.03;4.57;;;0.70;99.90;;;;;;5038527;28;20555;-63
2022/04/02 04:01:09;;;;;;;4.90;4.40;;;0.70;99.90;;;;;;5031439;28;20761;-62
2022/04/02 04:03:38;;;;;;;6.47;4.40;;;0.70;99.90;;;;;;5035067;28;20259;-63
2022/04/02 04:06:06;;;;;;;6.47;4.23;;;0.70;99.90;;;;;;5018500;28;20223;-62
2022/04/02 04:08:36;;;;;;;6.20;4.20;;;0.70;99.90;;;;;;5031392;28;20622;-63
2022/04/02 04:11:05;;;;;;;5.60;4.27;;;0.70;99.90;;;;;;5018611;28;20280;-63
2022/04/02 04:13:36;;;;;;;6.70;3.90;;;0.70;99.90;;;;;;5013938;28;20213;-63
2022/04/02 04:16:07;;;;;;;10.60;4.30;;;0.70;99.90;;;;;;5036110;28;20197;-62
2022/04/02 04:18:36;;;;;;;5.00;3.80;;;0.70;99.90;;;;;;5016019;28;20565;-62
2022/04/02 04:21:04;;;;;;;6.77;4.20;;;0.60;99.90;;;;;;5035184;28;20189;-63
2022/04/02 04:23:34;;;;;;;4.63;4.13;;;0.60;99.90;;;;;;5010630;28;20192;-62
2022/04/02 04:26:03;;;;;;;5.20;4.33;;;0.60;99.90;;;;;;5031935;28;20575;-63
2022/04/02 04:28:31;;;;;;;8.20;4.30;;;0.60;99.90;;;;;;5035821;28;20796;-62
2022/04/02 04:31:01;;;;;;;5.67;3.90;;;0.60;99.90;;;;;;5029732;28;20919;-62
2022/04/02 04:33:30;;;;;;;6.47;4.03;;;0.60;99.90;;;;;;5032877;28;20690;-63
2022/04/02 04:35:58;;;;;;;4.40;4.00;;;0.60;99.90;;;;;;5017965;28;20806;-63
2022/04/02 04:38:27;;;;;;;9.00;4.37;;;0.60;99.90;;;;;;5015113;28;20206;-63
2022/04/02 04:40:55;;;;;;;4.07;3.73;;;0.50;99.90;;;;;;5031551;28;20302;-62
2022/04/02 04:43:24;;;;;;;8.07;4.30;;;0.50;99.90;;;;;;5033493;28;21053;-63
2022/04/02 04:45:52;;;;;;;3.97;3.60;;;0.50;99.90;;;;;;5032908;28;20651;-63
2022/04/02 04:48:22;;;;;;;4.33;3.77;;;0.50;99.90;;;;;;5029715;28;20683;-63
2022/04/02 04:50:50;;;;;;;7.50;4.40;;;0.50;99.90;;;;;;5034970;28;20208;-63
2022/04/02 04:53:19;;;;;;;6.57;4.23;;;0.50;99.90;;;;;;5028246;28;20706;-62
2022/04/02 04:55:48;;;;;;;9.17;4.40;;;0.50;99.90;;;;;;5030676;28;20251;-63
2022/04/02 04:58:16;;;;;;;5.50;4.20;;;0.50;99.90;;;;;;5017329;28;20200;-63
2022/04/02 05:00:44;;;;;;;9.77;4.40;;;0.50;99.90;;;;;;5034963;28;20292;-63
2022/04/02 05:03:13;;;;;;;5.60;4.40;;;0.50;99.90;;;;;;5035641;28;20204;-63
2022/04/02 05:05:43;;;;;;;6.80;4.87;;;0.50;99.90;;;;;;5036952;28;20545;-63
2022/04/02 05:08:11;;;;;;;6.03;4.23;;;0.50;99.90;;;;;;5033785;28;20636;-63
2022/04/02 05:10:41;;;;;;;3.73;3.53;;;0.40;99.90;;;;;;5014766;28;20220;-62
2022/04/02 05:13:12;;;;;;;5.57;3.40;;;0.50;99.90;;;;;;5039304;28;20665;-63
2022/04/02 05:15:42;;;;;;;3.53;3.10;;;0.40;99.90;;;;;;5037440;28;21396;-63
2022/04/02 05:18:11;;;;;;;3.70;3.23;;;0.50;99.90;;;;;;5031787;28;20663;-62
2022/04/02 05:20:40;;;;;;;3.77;3.57;;;0.40;99.90;;;;;;5037309;28;20205;-62
2022/04/02 05:23:11;;;;;;;6.40;3.73;;;0.50;99.90;;;;;;5038202;28;20281;-62
2022/04/02 05:25:40;;;;;;;3.90;3.63;;;0.50;99.90;;;;;;5028673;28;20224;-63
2022/04/02 05:28:09;;;;;;;5.77;3.63;;;0.50;99.90;;;;;;5031245;28;20682;-63
2022/04/02 05:30:39;;;;;;;4.40;3.57;;;0.40;99.90;;;;;;5031821;28;20197;-63
2022/04/02 05:33:08;;;;;;;4.07;3.63;;;0.40;99.90;;;;;;5028893;28;20218;-63
2022/04/02 05:35:57;;;;;;;5.73;3.67;;;0.40;99.90;;;;;;5032746;28;20193;-63
2022/04/02 05:38:27;;;;;;;6.10;3.80;;;0.30;99.90;;;;;;5032792;28;20193;-63
2022/04/02 05:40:56;;;;;;;3.87;3.50;;;0.30;99.90;;;;;;5034727;28;20207;-63
2022/04/02 05:43:24;;;;;;;7.13;3.90;;;0.30;99.90;;;;;;5035096;28;20216;-63
2022/04/02 05:45:53;;;;;;;6.57;3.50;;;0.30;99.90;;;;;;5032142;28;20655;-62
2022/04/02 05:48:21;;;;;;;4.83;3.43;;;0.30;99.90;;;;;;5031605;28;20292;-62
2022/04/02 05:50:50;;;;;;;4.30;3.50;;;0.40;99.90;;;;;;5018014;28;20201;-63
2022/04/02 05:53:18;;;;;;;5.67;3.60;;;0.40;99.90;;;;;;5034714;28;20221;-63
2022/04/02 05:55:50;;;;;;;4.60;3.87;;;0.40;99.90;;;;;;5031510;28;20203;-63
2022/04/02 05:58:18;;;;;;;5.13;3.60;;;0.40;99.90;;;;;;5035729;28;20280;-62
2022/04/02 06:00:47;;;;;;;6.17;3.70;;;0.50;99.90;;;;;;5035835;28;20210;-63
2022/04/02 06:03:16;;;;;;;6.30;3.87;;;0.50;99.90;;;;;;5020351;28;20288;-63
2022/04/02 06:05:45;;;;;;;4.73;4.20;;;0.50;99.90;;;;;;5036426;28;20224;-62
2022/04/02 06:08:14;;;;;;;12.80;4.67;;;0.50;99.90;;;;;;5018219;28;20280;-63
2022/04/02 06:10:43;;;;;;;4.33;3.90;;;0.50;99.90;;;;;;5034978;28;20205;-63
2022/04/02 06:13:13;;;;;;;8.37;4.27;;;0.60;99.90;;;;;;5031512;28;20301;-61
2022/04/02 06:15:42;;;;;;;3.93;3.63;;;0.70;99.90;;;;;;5034708;28;20697;-61
2022/04/02 06:18:11;;;;;;;5.37;3.57;;;0.70;99.90;;;;;;5033231;28;20192;-62
2022/04/02 06:20:40;;;;;;;5.17;3.57;;;0.80;99.90;;;;;;5040384;28;20201;-61
2022/04/02 06:23:08;;;;;;;4.30;4.00;;;0.80;99.90;;;;;;5032262;28;20228;-61
2022/04/02 06:25:37;;;;;;;5.67;3.80;;;0.90;99.90;;;;;;5023058;28;20210;-62
2022/04/02 06:28:06;;;;;;;4.27;3.87;;;1.00;99.90;;;;;;5032345;28;20211;-62
2022/04/02 06:30:36;;;;;;;4.43;4.03;;;1.10;99.90;;;;;;5017833;28;20256;-62
2022/04/02 06:33:05;;;;;;;5.63;3.70;;;1.10;99.90;;;;;;5040565;28;20208;-62
2022/04/02 06:35:34;;;;;;;9.23;3.70;;;1.20;99.90;;;;;;5038497;28;20197;-62
2022/04/02 06:38:02;;;;;;;4.70;3.67;;;1.40;99.90;;;;;;5030026;28;20221;-62
2022/04/02 06:40:30;;;;;;;4.07;3.37;;;1.50;99.90;;;;;;5029417;28;20257;-62
2022/04/02 06:42:59;;;;;;;5.73;3.67;;;1.70;99.90;;;;;;5031669;28;20304;-62
2022/04/02 06:45:28;;;;;;;4.67;3.27;;;1.80;99.90;;;;;;5014981;28;20685;-62
2022/04/02 06:47:58;;;;;;;3.63;3.37;;;2.00;99.90;;;;;;5020234;28;20764;-62
2022/04/02 06:50:26;;;;;;;5.10;3.63;;;2.10;99.90;;;;;;5035794;28;20545;-62
2022/04/02 06:52:54;;;;;;;4.23;3.43;;;2.20;99.90;;;;;;5032893;28;20209;-62
2022/04/02 06:55:23;;;;;;;4.77;4.13;;;2.40;99.90;;;;;;5032827;28;20797;-62
2022/04/02 06:57:54;;;;;;;3.87;3.50;;;2.60;99.90;;;;;;5015891;28;20190;-62
2022/04/02 07:00:23;;;;;;;3.30;3.07;;;3.10;99.90;;;;;;5031016;28;20280;-62
2022/04/02 07:02:52;;;;;;;5.93;3.30;;;3.40;99.90;;;;;;5033375;28;20223;-63
2022/04/02 07:05:22;;;;;;;3.97;3.60;;;3.70;99.90;;;;;;5039652;28;20208;-63
2022/04/02 07:07:51;;;;;;;5.27;3.27;;;3.80;99.90;;;;;;5016276;28;20208;-62
2022/04/02 07:10:21;;;;;;;3.40;3.20;;;3.90;99.90;;;;;;5033860;28;20202;-62
2022/04/02 07:12:49;;;;;;;4.23;3.17;;;4.20;99.90;;;;;;5035279;28;20212;-62
2022/04/02 07:15:18;;;;;;;5.80;3.17;;;4.40;99.90;;;;;;5028942;28;20217;-62
2022/04/02 07:17:46;;;;;;;3.30;3.10;;;4.70;99.90;;;;;;5015208;28;20204;-62
2022/04/02 07:20:19;;;;;;;5.93;3.23;;;5.30;99.90;;;;;;5034344;28;20550;-63
2022/04/02 07:22:51;;;;;;;3.73;3.43;;;5.70;99.90;;;;;;5032226;28;20201;-62
2022/04/02 07:25:20;;;;;;;5.80;2.93;;;5.90;99.90;;;;;;5029403;28;20217;-65
2022/04/02 07:27:50;;;;;;;3.77;2.93;;;6.30;99.90;;;;;;5021558;28;20287;-65
2022/04/02 07:30:19;;;;;;;3.13;2.83;;;6.70;99.90;;;;;;5034722;28;20201;-65
2022/04/02 07:32:50;;;;;;;3.53;2.80;;;6.90;99.90;;;;;;5031674;28;20200;-65
2022/04/02 07:35:19;;;;;;;5.57;3.50;;;7.10;99.90;;;;;;5014781;28;20224;-65
2022/04/02 07:38:02;;;;;;;3.60;3.30;;;6.70;99.90;;;;;;5033904;28;20262;-65
2022/04/02 07:40:37;;;;;;;4.10;2.97;;;6.60;99.90;;;;;;5030533;28;20292;-64
2022/04/02 07:43:15;;;;;;;4.03;3.53;;;6.60;99.90;;;;;;5033595;28;20625;-65
2022/04/02 07:45:47;;;;;;;4.00;3.40;;;7.00;99.90;;;;;;5028893;28;20860;-64
2022/04/02 07:48:19;;;;;;;3.50;3.17;;;7.70;99.90;;;;;;5032784;28;20224;-65
2022/04/02 07:50:49;;;;;;;8.47;3.17;;;7.90;99.90;;;;;;5031638;28;20255;-65
2022/04/02 07:53:22;;;;;;;3.87;3.23;;;7.60;99.90;;;;;;5032512;28;20311;-64
2022/04/02 07:55:57;;;;;;;4.37;3.70;;;7.50;99.90;;;;;;5037212;28;20221;-65
2022/04/02 07:58:30;;;;;;;3.50;3.30;;;7.90;99.90;;;;;;5017477;28;20284;-65
2022/04/02 08:01:02;;;;;;;6.47;2.90;;;8.40;99.90;;;;;;5034073;28;20216;-65
2022/04/02 08:03:32;;;;;;;7.13;2.97;;;8.40;99.90;;;;;;5031547;28;20540;-65
2022/04/02 08:06:00;;;;;;;2.77;2.67;;;8.20;99.90;;;;;;5006985;28;20204;-61
2022/04/02 08:08:31;;;;;;;4.23;3.30;;;7.70;99.90;;;;;;5037439;28;20197;-62
2022/04/02 08:11:01;;;;;;;3.43;3.10;;;7.70;99.90;;;;;;5031578;28;20211;-62
2022/04/02 08:13:31;;;;;;;3.40;3.10;;;7.40;99.90;;;;;;5034786;28;20208;-65
2022/04/02 08:16:01;;;;;;;3.63;3.23;;;7.30;99.90;;;;;;5030306;28;20332;-64
2022/04/02 08:18:30;;;;;;;4.23;3.00;;;7.80;99.90;;;;;;5032238;28;20197;-63
2022/04/02 08:20:58;;;;;;;5.40;3.07;;;8.00;99.90;;;;;;5030959;28;20200;-65
2022/04/02 08:23:27;;;;;;;3.17;2.90;;;8.20;99.90;;;;;;5022675;28;20208;-65
2022/04/02 08:26:09;;;;;;;3.90;2.90;;;8.80;99.90;;;;;;5026656;28;20243;-65
2022/04/02 08:28:56;;;;;;;5.97;3.00;;;9.20;99.90;;;;;;5031613;28;20761;-65
2022/04/02 08:31:32;;;;;;;3.13;2.83;;;9.30;99.90;;;;;;5012085;28;20280;-62
2022/04/02 08:34:10;;;;;;;2.67;2.53;;;9.50;99.90;;;;;;5030047;28;20219;-65
2022/04/02 08:36:43;;;;;;;3.17;2.87;;;9.70;99.90;;;;;;5032024;28;20204;-63
2022/04/02 08:39:21;;;;;;;3.13;2.83;;;10.50;99.90;;;;;;5032903;28;20281;-63
2022/04/02 08:42:17;;;;;;;2.70;2.50;;;10.60;99.90;;;;;;5025250;28;20240;-65
2022/04/02 08:45:07;;;;;;;3.23;2.73;;;10.70;99.90;;;;;;5034429;28;20231;-62
2022/04/02 08:48:12;;;;;;;2.80;2.53;;;11.20;99.90;;;;;;5030003;28;20181;-63
2022/04/02 08:50:46;;;;;;;2.60;2.40;;;12.30;99.90;;;;;;5030935;28;20217;-65
2022/04/02 08:53:21;;;;;;;2.87;2.30;;;11.20;99.90;;;;;;5036547;28;20774;-66
2022/04/02 08:55:51;;;;;;;3.10;2.83;;;10.50;99.90;;;;;;5032898;28;20291;-65
2022/04/02 08:58:26;;;;;;;2.80;2.60;;;9.80;99.90;;;;;;5033701;28;20217;-65
2022/04/02 09:01:05;;;;;;;3.27;2.47;;;10.10;99.90;;;;;;5027563;28;20275;-66
2022/04/02 09:04:12;;;;;;;2.90;2.70;;;11.40;99.90;;;;;;5029675;28;20311;-66
2022/04/02 09:07:18;;;;;;;3.33;3.03;;;12.50;99.90;;;;;;5026476;28;20294;-65
2022/04/02 09:10:03;;;;;;;4.47;3.10;;;11.70;99.90;;;;;;5014791;28;20193;-65
2022/04/02 09:12:40;;;;;;;2.67;2.53;;;11.40;99.90;;;;;;5034608;28;20685;-64
2022/04/02 09:15:11;;;;;;;2.97;2.67;;;11.30;99.90;;;;;;5035953;28;20221;-65
2022/04/02 09:17:50;;;;;;;2.83;2.63;;;10.90;99.90;;;;;;5018110;28;20255;-64
2022/04/02 09:20:39;;;;;;;2.70;2.50;;;11.30;99.90;;;;;;5032458;28;20589;-65
2022/04/02 09:23:11;;;;;;;3.67;2.63;;;11.10;99.90;;;;;;5017991;28;20205;-66
2022/04/02 09:26:18;;;;;;;3.50;2.77;;;12.10;99.90;;;;;;5034510;28;20248;-65
2022/04/02 09:28:55;;;;;;;2.70;2.50;;;13.20;99.90;;;;;;5031123;28;20285;-66
2022/04/02 09:31:47;;;;;;;2.50;2.30;;;13.00;98.30;;;;;;5038038;28;20296;-65
2022/04/02 09:34:51;;;;;;;3.97;2.63;;;12.00;98.30;;;;;;5032872;28;20280;-65
2022/04/02 09:37:48;;;;;;;3.40;2.60;;;11.40;99.90;;;;;;5029899;28;20608;-65
2022/04/02 09:40:24;;;;;;;2.97;2.77;;;11.60;98.00;;;;;;5035797;28;20200;-66
2022/04/02 09:43:01;;;;;;;3.37;3.17;;;11.10;98.80;;;;;;5033140;28;20205;-61
2022/04/02 09:45:41;;;;;;;3.50;2.63;;;10.20;98.70;;;;;;5032892;28;20215;-61
2022/04/02 09:48:18;;;;;;;3.30;2.73;;;10.20;99.00;;;;;;5016164;28;20288;-61
2022/04/02 09:50:49;;;;;;;2.70;2.60;;;10.70;98.00;;;;;;5035991;28;20299;-62
2022/04/02 09:53:23;;;;;;;2.60;2.40;;;11.20;98.60;;;;;;5042646;28;20196;-62
2022/04/02 09:56:02;;;;;;;2.67;2.47;;;11.50;97.70;;;;;;5024073;28;20213;-64
2022/04/02 09:59:06;;;;;;;4.83;2.83;;;11.80;97.40;;;;;;5033351;28;20247;-62
2022/04/02 10:01:43;;;;;;;2.73;2.63;;;11.70;96.10;;;;;;5030516;28;20228;-65
2022/04/02 10:04:54;;;;;;;3.07;2.80;;;11.90;98.70;;;;;;5038997;28;20204;-61
2022/04/02 10:08:05;;;;;;;4.13;3.30;;;10.30;95.70;;;;;;5017077;28;20193;-65
2022/04/02 10:10:35;;;;;;;4.20;3.00;;;10.10;97.20;;;;;;5032698;28;20280;-60
2022/04/02 10:13:04;;;;;;;4.57;3.20;;;10.40;96.70;;;;;;5016387;28;20284;-65
2022/04/02 10:15:33;;;;;;;3.00;2.80;;;9.60;97.10;;;;;;5043495;28;20620;-65
2022/04/02 10:18:04;;;;;;;4.30;3.10;;;9.10;96.50;;;;;;5038389;28;20742;-61
2022/04/02 10:20:36;;;;;;;3.50;3.27;;;9.40;97.80;;;;;;5043826;28;20195;-62
2022/04/02 10:23:12;;;;;;;3.77;3.30;;;10.10;97.30;;;;;;5035535;28;20229;-62
2022/04/02 10:25:58;;;;;;;2.87;2.77;;;11.20;96.50;;;;;;5035229;28;20185;-65
2022/04/02 10:28:30;;;;;;;3.73;3.53;;;11.50;95.80;;;;;;5011534;28;20245;-65
2022/04/02 10:31:01;;;;;;;4.07;2.57;;;12.10;95.80;;;;;;5043959;28;20209;-65
2022/04/02 10:33:36;;;;;;;2.90;2.80;;;12.10;94.70;;;;;;5025768;28;20201;-65
2022/04/02 10:36:10;;;;;;;4.13;2.90;;;11.70;95.40;;;;;;5035581;28;20499;-65
2022/04/02 10:38:39;;;;;;;3.37;2.53;;;12.40;96.20;;;;;;5029624;28;20240;-64
2022/04/02 10:41:10;;;;;;;2.53;2.43;;;12.80;95.50;;;;;;5030485;28;20730;-65
2022/04/02 10:43:47;;;;;;;3.00;2.90;;;11.40;95.50;;;;;;5014044;28;20287;-65
2022/04/02 10:46:19;;;;;;;3.10;2.70;;;11.50;95.60;;;;;;5035092;28;20276;-64
2022/04/02 10:48:57;;;;;;;2.93;2.70;;;11.70;95.10;;;;;;5032449;28;20201;-62
2022/04/02 10:51:28;;;;;;;3.30;3.00;;;11.90;94.50;;;;;;5019298;28;20253;-65
2022/04/02 10:54:02;;;;;;;2.70;2.50;;;12.10;94.80;;;;;;5034274;28;20193;-65
2022/04/02 10:56:35;;;;;;;2.97;2.77;;;11.20;93.70;;;;;;5014238;28;20628;-65
2022/04/02 10:59:03;;;;;;;2.90;2.70;;;10.50;95.50;;;;;;5040018;28;20213;-64
2022/04/02 11:01:33;;;;;;;3.17;2.87;;;10.00;96.70;;;;;;5021299;28;20284;-64
2022/04/02 11:04:13;;;;;;;3.60;3.30;;;10.60;98.10;;;;;;5030762;28;20220;-65
2022/04/02 11:06:48;;;;;;;6.00;3.60;;;12.20;97.40;;;;;;5033403;28;20197;-61
2022/04/02 11:09:32;;;;;;;3.20;2.90;;;13.10;96.50;;;;;;5034118;28;20229;-61
2022/04/02 11:12:05;;;;;;;4.33;2.50;;;12.40;94.20;;;;;;5033580;28;20200;-62
2022/04/02 11:14:42;;;;;;;5.00;2.80;;;10.40;95.70;;;;;;5020785;28;20201;-61
2022/04/02 11:17:27;;;;;;;3.73;2.80;;;9.20;96.00;;;;;;5014599;28;20404;-61
2022/04/02 11:20:04;;;;;;;2.73;2.63;;;8.90;98.80;;;;;;5038606;28;20208;-64
2022/04/02 11:22:58;;;;;;;4.30;2.73;;;8.40;96.20;;;;;;5036205;28;20732;-64
2022/04/02 11:25:31;;;;;;;4.30;2.83;;;8.10;98.10;;;;;;5034721;28;20259;-64
2022/04/02 11:28:12;;;;;;;2.80;2.70;;;8.20;97.30;;;;;;5033907;28;20193;-64
2022/04/02 11:30:43;;;;;;;4.50;3.50;;;9.00;98.60;;;;;;5030790;28;20209;-61
2022/04/02 11:33:17;;;;;;;3.47;3.10;;;10.20;99.10;;;;;;5034733;28;20636;-61
2022/04/02 11:35:47;;;;;;;2.73;2.57;;;10.40;98.30;;;;;;5032157;28;20205;-61
2022/04/02 11:38:31;;;;;;;2.80;2.60;;;10.50;97.80;;;;;;5033107;28;20420;-63
2022/04/02 11:41:06;;;;;;;3.20;2.90;;;10.10;97.60;;;;;;5035268;28;20284;-61
2022/04/02 11:43:36;;;;;;;3.00;2.67;;;9.40;97.90;;;;;;5031438;28;20192;-61
2022/04/02 11:46:06;;;;;;;4.63;2.80;;;9.20;97.70;;;;;;5035759;28;20209;-61
2022/04/02 11:48:38;;;;;;;2.90;2.80;;;8.80;97.20;;;;;;5037015;28;20574;-60
2022/04/02 11:51:14;;;;;;;3.07;2.80;;;8.30;97.10;;;;;;5031827;28;20661;-61
2022/04/02 11:53:45;;;;;;;6.83;2.40;;;8.00;96.90;;;;;;5035087;28;20204;-68
2022/04/02 11:56:29;;;;;;;3.07;2.87;;;7.90;98.30;;;;;;5029671;28;20299;-70
2022/04/02 11:58:59;;;;;;;2.70;2.60;;;7.90;98.50;;;;;;5032164;28;20248;-69
2022/04/02 12:01:39;;;;;;;2.97;2.77;;;7.70;97.60;;;;;;5033261;28;20213;-69
2022/04/02 12:04:12;;;;;;;3.03;2.57;;;7.50;97.20;;;;;;5033621;28;20284;-69
2022/04/02 12:06:42;;;;;;;3.30;3.00;;;8.00;97.80;;;;;;5029672;28;20630;-69
2022/04/02 12:09:19;;;;;;;3.27;2.50;;;8.20;98.00;;;;;;5032354;28;20268;-69
2022/04/02 12:11:52;;;;;;;3.00;2.77;;;8.80;97.80;;;;;;5031579;28;20212;-69
2022/04/02 12:14:34;;;;;;;3.10;2.73;;;9.00;97.40;;;;;;5028356;28;20206;-69
2022/04/02 12:17:05;;;;;;;3.17;2.97;;;9.00;97.80;;;;;;5032906;28;20236;-69
2022/04/02 12:19:40;;;;;;;3.43;3.10;;;8.60;97.50;;;;;;5036373;28;20208;-69
2022/04/02 12:22:26;;;;;;;3.47;3.20;;;7.80;99.30;;;;;;5021889;28;20553;-69
2022/04/02 12:24:59;;;;;;;3.83;3.53;;;7.70;99.90;;;;;;5032873;28;20288;-69
2022/04/02 12:27:30;;;;;;;6.27;3.20;;;7.50;99.90;;;;;;5016626;28;20710;-68
2022/04/02 12:30:00;;;;;;;3.77;3.50;;;7.50;99.90;;;;;;5019412;28;20276;-69
2022/04/02 12:32:31;;;;;;;3.50;3.20;;;7.20;99.90;;;;;;5019438;28;20221;-69
2022/04/02 12:35:02;;;;;;;4.07;2.93;;;7.40;99.90;;;;;;5029360;28;20197;-69
2022/04/02 12:37:32;;;;;;;5.27;3.30;;;7.70;99.90;;;;;;5037840;28;20228;-69
2022/04/02 12:40:17;;;;;;;3.47;3.20;;;7.80;99.60;;;;;;5041623;28;20228;-69
2022/04/02 12:42:46;;;;;;;4.50;3.27;;;7.50;99.90;;;;;;5038880;28;20208;-69
2022/04/02 12:45:17;;;;;;;3.50;3.20;;;7.40;99.90;;;;;;5017127;28;20189;-69
2022/04/02 12:47:58;;;;;;;3.33;3.10;;;7.10;99.40;;;;;;5039339;28;20197;-69
2022/04/02 12:50:28;;;;;;;3.40;3.10;;;6.90;99.90;;;;;;5026183;28;20284;-69
2022/04/02 12:52:56;;;;;;;3.17;3.00;;;7.10;99.90;;;;;;5041994;28;20721;-69
2022/04/02 12:55:27;;;;;;;12.17;5.50;;;7.00;99.90;;;;;;5031354;28;20280;-69
2022/04/02 12:58:02;;;;;;;4.40;4.00;;;7.00;99.90;;;;;;5036817;28;20221;-70
2022/04/02 13:00:36;;;;;;;4.67;4.00;;;7.00;99.70;;;;;;5039622;28;20670;-70
2022/04/02 13:03:06;;;;;;;3.53;3.27;;;7.10;99.90;;;;;;5047496;28;20232;-70
2022/04/02 13:05:47;;;;;;;4.00;3.63;;;7.00;99.90;;;;;;5034313;28;20201;-70
2022/04/02 13:08:26;;;;;;;5.07;3.47;;;7.10;99.90;;;;;;5039535;28;20280;-69
2022/04/02 13:10:57;;;;;;;4.00;3.63;;;7.00;99.90;;;;;;5017778;28;20189;-70
2022/04/02 13:13:43;;;;;;;4.03;3.27;;;7.20;99.90;;;;;;5035499;28;20284;-70
2022/04/02 13:16:14;;;;;;;2.90;2.80;;;7.60;99.00;;;;;;5038228;28;20280;-70
2022/04/02 13:21:42;;;;;;;3.03;2.73;;;9.00;99.90;;;;;;5032773;28;20280;-70
2022/04/02 13:24:31;;;;;;;2.97;2.77;;;9.60;96.80;;;;;;5034533;28;20190;-70
2022/04/02 13:27:35;;;;;;;2.90;2.80;;;9.00;96.20;;;;;;5017864;28;20252;-70
2022/04/02 13:30:07;;;;;;;3.40;3.10;;;8.50;99.40;;;;;;5017245;28;20292;-70